sensor_id;sensor_type;location;lat;lon;timestamp;temperature;humidity
14378;DHT22;7272;53.668;9.578;2023-04-15T00:01:13;8.50;99.90
14378;DHT22;7272;53.668;9.578;2023-04-15T00:04:18;8.50;99.90
14378;DHT22;7272;53.668;9.578;2023-04-15T00:07:21;8.60;99.90
14378;DHT22;7272;53.668;9.578;2023-04-15T00:10:23;8.50;99.90
14378;DHT22;7272;53.668;9.578;2023-04-15T00:13:25;8.50;99.90
14378;DHT22;7272;53.668;9.578;2023-04-15T00:16:28;8.40;99.90
14378;DHT22;7272;53.668;9.578;2023-04-15T00:19:30;8.50;99.90
14378;DHT22;7272;53.668;9.578;2023-04-15T00:22:33;8.50;99.90
14378;DHT22;7272;53.668;9.578;2023-04-15T00:25:36;8.50;99.90
14378;DHT22;7272;53.668;9.578;2023-04-15T00:28:38;8.60;99.90
14378;DHT22;7272;53.668;9.578;2023-04-15T00:31:41;8.50;99.90
14378;DHT22;7272;53.668;9.578;2023-04-15T00:34:43;8.60;99.90
14378;DHT22;7272;53.668;9.578;2023-04-15T00:37:45;8.50;99.90
14378;DHT22;7272;53.668;9.578;2023-04-15T00:40:47;8.50;99.90
14378;DHT22;7272;53.668;9.578;2023-04-15T00:43:51;8.50;99.90
14378;DHT22;7272;53.668;9.578;2023-04-15T00:46:54;8.50;99.90
14378;DHT22;7272;53.668;9.578;2023-04-15T00:49:56;8.50;99.90
14378;DHT22;7272;53.668;9.578;2023-04-15T00:52:58;8.50;99.90
14378;DHT22;7272;53.668;9.578;2023-04-15T00:56:00;8.50;99.90
14378;DHT22;7272;53.668;9.578;2023-04-15T00:59:03;8.50;99.90
14378;DHT22;7272;53.668;9.578;2023-04-15T01:02:07;8.50;99.90
14378;DHT22;7272;53.668;9.578;2023-04-15T01:05:09;8.50;99.90
14378;DHT22;7272;53.668;9.578;2023-04-15T01:08:11;8.40;99.90
14378;DHT22;7272;53.668;9.578;2023-04-15T01:11:13;8.50;99.90
14378;DHT22;7272;53.668;9.578;2023-04-15T01:14:16;8.60;99.90
14378;DHT22;7272;53.668;9.578;2023-04-15T01:17:19;8.60;99.90
14378;DHT22;7272;53.668;9.578;2023-04-15T01:20:21;8.60;99.90
14378;DHT22;7272;53.668;9.578;2023-04-15T01:23:23;8.50;99.90
14378;DHT22;7272;53.668;9.578;2023-04-15T01:26:27;8.50;99.90
14378;DHT22;7272;53.668;9.578;2023-04-15T01:29:31;8.50;99.90
14378;DHT22;7272;53.668;9.578;2023-04-15T01:32:33;8.50;99.90
14378;DHT22;7272;53.668;9.578;2023-04-15T01:35:54;8.50;99.90
14378;DHT22;7272;53.668;9.578;2023-04-15T01:38:59;8.50;99.90
14378;DHT22;7272;53.668;9.578;2023-04-15T01:42:02;8.50;99.90
14378;DHT22;7272;53.668;9.578;2023-04-15T01:45:07;8.50;99.90
14378;DHT22;7272;53.668;9.578;2023-04-15T01:48:13;8.50;99.90
14378;DHT22;7272;53.668;9.578;2023-04-15T01:51:16;8.50;99.90
14378;DHT22;7272;53.668;9.578;2023-04-15T01:54:19;8.40;99.90
14378;DHT22;7272;53.668;9.578;2023-04-15T01:57:24;8.50;99.90
14378;DHT22;7272;53.668;9.578;2023-04-15T02:00:27;8.50;99.90
14378;DHT22;7272;53.668;9.578;2023-04-15T02:03:30;8.50;99.90
14378;DHT22;7272;53.668;9.578;2023-04-15T02:06:34;8.50;99.90
14378;DHT22;7272;53.668;9.578;2023-04-15T02:09:37;8.50;99.90
14378;DHT22;7272;53.668;9.578;2023-04-15T02:12:44;8.50;99.90
14378;DHT22;7272;53.668;9.578;2023-04-15T02:15:47;8.50;99.90
14378;DHT22;7272;53.668;9.578;2023-04-15T02:18:54;8.40;99.90
14378;DHT22;7272;53.668;9.578;2023-04-15T02:21:57;8.40;99.90
14378;DHT22;7272;53.668;9.578;2023-04-15T02:25:00;8.40;99.90
14378;DHT22;7272;53.668;9.578;2023-04-15T02:28:05;8.40;99.90
14378;DHT22;7272;53.668;9.578;2023-04-15T02:31:08;8.40;99.90
14378;DHT22;7272;53.668;9.578;2023-04-15T02:34:11;8.40;99.90
14378;DHT22;7272;53.668;9.578;2023-04-15T02:37:20;8.40;99.90
14378;DHT22;7272;53.668;9.578;2023-04-15T02:40:23;8.40;99.90
14378;DHT22;7272;53.668;9.578;2023-04-15T02:43:28;8.40;99.90
14378;DHT22;7272;53.668;9.578;2023-04-15T02:46:31;8.50;99.90
14378;DHT22;7272;53.668;9.578;2023-04-15T02:49:34;8.50;99.90
14378;DHT22;7272;53.668;9.578;2023-04-15T02:52:38;8.40;99.90
14378;DHT22;7272;53.668;9.578;2023-04-15T02:55:42;8.50;99.90
14378;DHT22;7272;53.668;9.578;2023-04-15T02:58:46;8.50;99.90
14378;DHT22;7272;53.668;9.578;2023-04-15T03:01:51;8.50;99.90
14378;DHT22;7272;53.668;9.578;2023-04-15T03:04:54;8.40;99.90
14378;DHT22;7272;53.668;9.578;2023-04-15T03:07:57;8.40;99.90
14378;DHT22;7272;53.668;9.578;2023-04-15T03:11:02;8.40;99.90
14378;DHT22;7272;53.668;9.578;2023-04-15T03:14:06;8.40;99.90
14378;DHT22;7272;53.668;9.578;2023-04-15T03:17:12;8.40;99.90
14378;DHT22;7272;53.668;9.578;2023-04-15T03:20:15;8.40;99.90
14378;DHT22;7272;53.668;9.578;2023-04-15T03:23:19;8.40;99.90
14378;DHT22;7272;53.668;9.578;2023-04-15T03:26:25;8.40;99.90
14378;DHT22;7272;53.668;9.578;2023-04-15T03:29:29;8.40;99.90
14378;DHT22;7272;53.668;9.578;2023-04-15T03:32:34;8.50;99.90
14378;DHT22;7272;53.668;9.578;2023-04-15T03:35:37;8.50;99.90
14378;DHT22;7272;53.668;9.578;2023-04-15T03:38:40;8.60;99.90
14378;DHT22;7272;53.668;9.578;2023-04-15T03:41:43;8.60;99.90
14378;DHT22;7272;53.668;9.578;2023-04-15T03:44:48;8.60;99.90
14378;DHT22;7272;53.668;9.578;2023-04-15T03:47:51;8.50;99.90
14378;DHT22;7272;53.668;9.578;2023-04-15T03:50:54;8.50;99.90
14378;DHT22;7272;53.668;9.578;2023-04-15T03:53:57;8.50;99.90
14378;DHT22;7272;53.668;9.578;2023-04-15T03:57:00;8.50;99.90
14378;DHT22;7272;53.668;9.578;2023-04-15T04:00:07;8.50;99.90
14378;DHT22;7272;53.668;9.578;2023-04-15T04:03:14;8.50;99.90
14378;DHT22;7272;53.668;9.578;2023-04-15T04:06:17;8.50;99.90
14378;DHT22;7272;53.668;9.578;2023-04-15T04:09:20;8.60;99.90
14378;DHT22;7272;53.668;9.578;2023-04-15T04:12:23;8.50;99.90
14378;DHT22;7272;53.668;9.578;2023-04-15T04:15:28;8.60;99.90
14378;DHT22;7272;53.668;9.578;2023-04-15T04:18:31;8.50;99.90
14378;DHT22;7272;53.668;9.578;2023-04-15T04:21:35;8.60;99.90
14378;DHT22;7272;53.668;9.578;2023-04-15T04:24:38;8.60;99.90
14378;DHT22;7272;53.668;9.578;2023-04-15T04:27:41;8.60;99.90
14378;DHT22;7272;53.668;9.578;2023-04-15T04:30:45;8.60;99.90
14378;DHT22;7272;53.668;9.578;2023-04-15T04:33:49;8.70;99.90
14378;DHT22;7272;53.668;9.578;2023-04-15T04:36:52;8.60;99.90
14378;DHT22;7272;53.668;9.578;2023-04-15T04:39:55;8.70;99.90
14378;DHT22;7272;53.668;9.578;2023-04-15T04:42:58;8.60;99.90
14378;DHT22;7272;53.668;9.578;2023-04-15T04:46:03;8.70;99.90
14378;DHT22;7272;53.668;9.578;2023-04-15T04:49:06;8.70;99.90
14378;DHT22;7272;53.668;9.578;2023-04-15T04:52:09;8.70;99.90
14378;DHT22;7272;53.668;9.578;2023-04-15T04:55:12;8.70;99.90
14378;DHT22;7272;53.668;9.578;2023-04-15T04:58:15;8.70;99.90
14378;DHT22;7272;53.668;9.578;2023-04-15T05:01:20;8.70;99.90
14378;DHT22;7272;53.668;9.578;2023-04-15T05:04:23;8.70;99.90
14378;DHT22;7272;53.668;9.578;2023-04-15T05:07:27;8.70;99.90
14378;DHT22;7272;53.668;9.578;2023-04-15T05:10:30;8.70;99.90
14378;DHT22;7272;53.668;9.578;2023-04-15T05:13:33;8.70;99.90
14378;DHT22;7272;53.668;9.578;2023-04-15T05:16:41;8.80;99.90
14378;DHT22;7272;53.668;9.578;2023-04-15T05:19:44;8.80;99.90
14378;DHT22;7272;53.668;9.578;2023-04-15T05:22:47;8.80;99.90
14378;DHT22;7272;53.668;9.578;2023-04-15T05:25:50;8.80;99.90
14378;DHT22;7272;53.668;9.578;2023-04-15T05:28:53;8.90;99.90
14378;DHT22;7272;53.668;9.578;2023-04-15T05:31:58;8.90;99.90
14378;DHT22;7272;53.668;9.578;2023-04-15T05:35:01;8.90;99.90
14378;DHT22;7272;53.668;9.578;2023-04-15T05:38:04;8.90;99.90
14378;DHT22;7272;53.668;9.578;2023-04-15T05:41:08;8.90;99.90
14378;DHT22;7272;53.668;9.578;2023-04-15T05:44:11;8.90;99.90
14378;DHT22;7272;53.668;9.578;2023-04-15T05:47:15;8.90;99.90
14378;DHT22;7272;53.668;9.578;2023-04-15T05:50:18;8.90;99.90
14378;DHT22;7272;53.668;9.578;2023-04-15T05:53:22;9.00;99.90
14378;DHT22;7272;53.668;9.578;2023-04-15T05:56:25;8.90;99.90
14378;DHT22;7272;53.668;9.578;2023-04-15T05:59:28;8.90;99.90
14378;DHT22;7272;53.668;9.578;2023-04-15T06:02:33;9.00;99.90
14378;DHT22;7272;53.668;9.578;2023-04-15T06:05:36;9.00;99.90
14378;DHT22;7272;53.668;9.578;2023-04-15T06:08:39;9.00;99.90
14378;DHT22;7272;53.668;9.578;2023-04-15T06:11:42;9.10;99.90
14378;DHT22;7272;53.668;9.578;2023-04-15T06:14:46;9.10;99.90
14378;DHT22;7272;53.668;9.578;2023-04-15T06:17:50;9.10;99.90
14378;DHT22;7272;53.668;9.578;2023-04-15T06:20:53;9.10;99.90
14378;DHT22;7272;53.668;9.578;2023-04-15T06:23:57;9.10;99.90
14378;DHT22;7272;53.668;9.578;2023-04-15T06:27:02;9.10;99.90
14378;DHT22;7272;53.668;9.578;2023-04-15T06:30:06;9.20;99.90
14378;DHT22;7272;53.668;9.578;2023-04-15T06:33:11;9.20;99.90
14378;DHT22;7272;53.668;9.578;2023-04-15T06:36:14;9.20;99.90
14378;DHT22;7272;53.668;9.578;2023-04-15T06:39:17;9.20;99.90
14378;DHT22;7272;53.668;9.578;2023-04-15T06:42:21;9.20;99.90
14378;DHT22;7272;53.668;9.578;2023-04-15T06:45:24;9.20;99.90
14378;DHT22;7272;53.668;9.578;2023-04-15T06:48:29;9.20;99.90
14378;DHT22;7272;53.668;9.578;2023-04-15T06:51:33;9.30;99.90
14378;DHT22;7272;53.668;9.578;2023-04-15T06:54:37;9.30;99.90
14378;DHT22;7272;53.668;9.578;2023-04-15T06:57:40;9.30;99.90
14378;DHT22;7272;53.668;9.578;2023-04-15T07:00:43;9.30;99.90
14378;DHT22;7272;53.668;9.578;2023-04-15T07:03:48;9.30;99.90
14378;DHT22;7272;53.668;9.578;2023-04-15T07:06:51;9.40;99.90
14378;DHT22;7272;53.668;9.578;2023-04-15T07:09:55;9.40;99.90
14378;DHT22;7272;53.668;9.578;2023-04-15T07:12:58;9.40;99.90
14378;DHT22;7272;53.668;9.578;2023-04-15T07:16:02;9.50;99.90
14378;DHT22;7272;53.668;9.578;2023-04-15T07:19:06;9.50;99.90
14378;DHT22;7272;53.668;9.578;2023-04-15T07:22:09;9.50;99.90
14378;DHT22;7272;53.668;9.578;2023-04-15T07:25:13;9.50;99.90
14378;DHT22;7272;53.668;9.578;2023-04-15T07:28:16;9.50;99.90
14378;DHT22;7272;53.668;9.578;2023-04-15T07:31:19;9.50;99.90
14378;DHT22;7272;53.668;9.578;2023-04-15T07:34:24;9.60;99.90
14378;DHT22;7272;53.668;9.578;2023-04-15T07:37:27;9.60;99.90
14378;DHT22;7272;53.668;9.578;2023-04-15T07:40:30;9.60;99.90
14378;DHT22;7272;53.668;9.578;2023-04-15T07:43:36;9.70;99.90
14378;DHT22;7272;53.668;9.578;2023-04-15T07:46:39;9.80;99.90
14378;DHT22;7272;53.668;9.578;2023-04-15T07:49:44;9.80;99.90
14378;DHT22;7272;53.668;9.578;2023-04-15T07:52:48;9.80;99.90
14378;DHT22;7272;53.668;9.578;2023-04-15T07:55:52;9.80;99.90
14378;DHT22;7272;53.668;9.578;2023-04-15T07:58:55;9.80;99.90
14378;DHT22;7272;53.668;9.578;2023-04-15T08:01:58;9.80;99.90
14378;DHT22;7272;53.668;9.578;2023-04-15T08:05:03;9.80;99.90
14378;DHT22;7272;53.668;9.578;2023-04-15T08:08:08;9.90;99.90
14378;DHT22;7272;53.668;9.578;2023-04-15T08:11:11;9.90;99.90
14378;DHT22;7272;53.668;9.578;2023-04-15T08:14:15;10.00;99.90
14378;DHT22;7272;53.668;9.578;2023-04-15T08:17:18;9.90;99.90
14378;DHT22;7272;53.668;9.578;2023-04-15T08:20:23;9.90;99.90
14378;DHT22;7272;53.668;9.578;2023-04-15T08:23:26;9.90;99.90
14378;DHT22;7272;53.668;9.578;2023-04-15T08:26:29;9.90;99.90
14378;DHT22;7272;53.668;9.578;2023-04-15T08:29:32;9.90;99.90
14378;DHT22;7272;53.668;9.578;2023-04-15T08:32:35;10.00;99.90
14378;DHT22;7272;53.668;9.578;2023-04-15T08:35:40;10.00;99.90
14378;DHT22;7272;53.668;9.578;2023-04-15T08:38:43;10.10;99.90
14378;DHT22;7272;53.668;9.578;2023-04-15T08:41:51;10.00;99.90
14378;DHT22;7272;53.668;9.578;2023-04-15T08:44:59;10.10;99.90
14378;DHT22;7272;53.668;9.578;2023-04-15T08:48:04;10.10;99.90
14378;DHT22;7272;53.668;9.578;2023-04-15T08:51:09;10.00;99.90
14378;DHT22;7272;53.668;9.578;2023-04-15T08:54:17;10.00;99.90
14378;DHT22;7272;53.668;9.578;2023-04-15T08:57:21;10.00;99.90
14378;DHT22;7272;53.668;9.578;2023-04-15T09:00:25;10.10;99.90
14378;DHT22;7272;53.668;9.578;2023-04-15T09:03:31;10.00;99.90
14378;DHT22;7272;53.668;9.578;2023-04-15T09:06:35;10.10;99.90
14378;DHT22;7272;53.668;9.578;2023-04-15T09:09:38;10.00;99.90
14378;DHT22;7272;53.668;9.578;2023-04-15T09:12:43;10.00;99.90
14378;DHT22;7272;53.668;9.578;2023-04-15T09:15:46;10.00;99.90
14378;DHT22;7272;53.668;9.578;2023-04-15T09:18:50;10.00;99.90
14378;DHT22;7272;53.668;9.578;2023-04-15T09:21:56;10.00;99.90
14378;DHT22;7272;53.668;9.578;2023-04-15T09:24:59;10.10;99.90
14378;DHT22;7272;53.668;9.578;2023-04-15T09:28:03;10.10;99.90
14378;DHT22;7272;53.668;9.578;2023-04-15T09:31:06;10.30;99.90
14378;DHT22;7272;53.668;9.578;2023-04-15T09:34:11;10.40;99.90
14378;DHT22;7272;53.668;9.578;2023-04-15T09:37:15;10.60;99.90
14378;DHT22;7272;53.668;9.578;2023-04-15T09:40:30;10.60;99.90
14378;DHT22;7272;53.668;9.578;2023-04-15T09:43:38;10.70;99.90
14378;DHT22;7272;53.668;9.578;2023-04-15T09:46:42;10.80;99.90
14378;DHT22;7272;53.668;9.578;2023-04-15T09:49:54;10.80;99.90
14378;DHT22;7272;53.668;9.578;2023-04-15T09:53:02;11.00;99.90
14378;DHT22;7272;53.668;9.578;2023-04-15T09:56:06;10.90;99.90
14378;DHT22;7272;53.668;9.578;2023-04-15T09:59:11;11.00;99.90
14378;DHT22;7272;53.668;9.578;2023-04-15T10:02:15;11.10;99.90
14378;DHT22;7272;53.668;9.578;2023-04-15T10:05:20;11.10;99.90
14378;DHT22;7272;53.668;9.578;2023-04-15T10:08:26;11.10;99.90
14378;DHT22;7272;53.668;9.578;2023-04-15T10:11:32;11.10;99.90
14378;DHT22;7272;53.668;9.578;2023-04-15T10:14:37;11.10;99.90
14378;DHT22;7272;53.668;9.578;2023-04-15T10:17:43;11.30;99.90
14378;DHT22;7272;53.668;9.578;2023-04-15T10:20:47;11.40;99.90
14378;DHT22;7272;53.668;9.578;2023-04-15T10:23:52;11.50;99.90
14378;DHT22;7272;53.668;9.578;2023-04-15T10:26:56;11.60;99.90
14378;DHT22;7272;53.668;9.578;2023-04-15T10:30:00;11.70;99.90
14378;DHT22;7272;53.668;9.578;2023-04-15T10:33:05;11.70;99.90
14378;DHT22;7272;53.668;9.578;2023-04-15T10:36:10;11.70;99.90
14378;DHT22;7272;53.668;9.578;2023-04-15T10:39:43;11.90;99.90
14378;DHT22;7272;53.668;9.578;2023-04-15T10:42:46;11.90;99.90
14378;DHT22;7272;53.668;9.578;2023-04-15T10:45:50;12.00;99.90
14378;DHT22;7272;53.668;9.578;2023-04-15T10:48:55;12.20;99.90
14378;DHT22;7272;53.668;9.578;2023-04-15T10:51:58;12.30;99.90
14378;DHT22;7272;53.668;9.578;2023-04-15T10:55:12;12.20;99.90
14378;DHT22;7272;53.668;9.578;2023-04-15T10:58:16;12.20;99.90
14378;DHT22;7272;53.668;9.578;2023-04-15T11:01:19;12.30;99.90
14378;DHT22;7272;53.668;9.578;2023-04-15T11:04:53;12.70;99.90
14378;DHT22;7272;53.668;9.578;2023-04-15T11:07:56;13.20;99.90
14378;DHT22;7272;53.668;9.578;2023-04-15T11:11:01;13.20;99.90
14378;DHT22;7272;53.668;9.578;2023-04-15T11:14:04;13.00;99.90
14378;DHT22;7272;53.668;9.578;2023-04-15T11:17:07;13.20;99.90
14378;DHT22;7272;53.668;9.578;2023-04-15T11:20:14;13.00;99.90
14378;DHT22;7272;53.668;9.578;2023-04-15T11:23:19;12.90;99.90
14378;DHT22;7272;53.668;9.578;2023-04-15T11:26:26;12.90;99.90
14378;DHT22;7272;53.668;9.578;2023-04-15T11:29:29;13.30;99.90
14378;DHT22;7272;53.668;9.578;2023-04-15T11:32:33;13.40;99.90
14378;DHT22;7272;53.668;9.578;2023-04-15T11:35:39;13.30;99.90
14378;DHT22;7272;53.668;9.578;2023-04-15T11:38:43;13.30;99.90
14378;DHT22;7272;53.668;9.578;2023-04-15T11:41:48;13.50;99.90
14378;DHT22;7272;53.668;9.578;2023-04-15T11:45:05;13.90;99.90
14378;DHT22;7272;53.668;9.578;2023-04-15T11:48:11;13.90;99.90
14378;DHT22;7272;53.668;9.578;2023-04-15T11:51:15;14.00;99.90
14378;DHT22;7272;53.668;9.578;2023-04-15T11:54:18;14.00;99.90
14378;DHT22;7272;53.668;9.578;2023-04-15T11:57:21;14.20;99.90
14378;DHT22;7272;53.668;9.578;2023-04-15T12:00:23;14.20;99.90
14378;DHT22;7272;53.668;9.578;2023-04-15T12:03:26;14.10;99.90
14378;DHT22;7272;53.668;9.578;2023-04-15T12:06:34;14.20;99.90
14378;DHT22;7272;53.668;9.578;2023-04-15T12:09:39;14.40;99.90
14378;DHT22;7272;53.668;9.578;2023-04-15T12:12:42;14.50;99.90
14378;DHT22;7272;53.668;9.578;2023-04-15T12:15:44;14.60;99.90
14378;DHT22;7272;53.668;9.578;2023-04-15T12:18:46;14.90;99.90
14378;DHT22;7272;53.668;9.578;2023-04-15T12:21:49;15.20;99.90
14378;DHT22;7272;53.668;9.578;2023-04-15T12:24:54;15.20;99.90
14378;DHT22;7272;53.668;9.578;2023-04-15T12:27:58;15.20;99.90
14378;DHT22;7272;53.668;9.578;2023-04-15T12:31:06;14.90;99.90
14378;DHT22;7272;53.668;9.578;2023-04-15T12:34:08;14.50;99.90
14378;DHT22;7272;53.668;9.578;2023-04-15T12:37:11;14.30;99.90
14378;DHT22;7272;53.668;9.578;2023-04-15T12:40:14;14.20;99.90
14378;DHT22;7272;53.668;9.578;2023-04-15T12:43:17;14.30;99.90
14378;DHT22;7272;53.668;9.578;2023-04-15T12:46:20;14.50;99.90
14378;DHT22;7272;53.668;9.578;2023-04-15T12:49:23;14.60;99.90
14378;DHT22;7272;53.668;9.578;2023-04-15T12:52:25;14.70;99.90
14378;DHT22;7272;53.668;9.578;2023-04-15T12:55:27;14.70;99.90
14378;DHT22;7272;53.668;9.578;2023-04-15T12:58:31;14.90;99.90
14378;DHT22;7272;53.668;9.578;2023-04-15T13:01:34;15.10;99.90
14378;DHT22;7272;53.668;9.578;2023-04-15T13:04:36;15.20;99.90
14378;DHT22;7272;53.668;9.578;2023-04-15T13:07:38;15.30;99.90
14378;DHT22;7272;53.668;9.578;2023-04-15T13:10:40;15.40;99.90
14378;DHT22;7272;53.668;9.578;2023-04-15T13:13:44;15.40;99.90
14378;DHT22;7272;53.668;9.578;2023-04-15T13:16:47;15.20;99.90
14378;DHT22;7272;53.668;9.578;2023-04-15T13:19:49;15.10;99.90
14378;DHT22;7272;53.668;9.578;2023-04-15T13:22:52;15.10;99.90
14378;DHT22;7272;53.668;9.578;2023-04-15T13:25:55;15.20;99.90
14378;DHT22;7272;53.668;9.578;2023-04-15T13:29:00;15.50;99.90
14378;DHT22;7272;53.668;9.578;2023-04-15T13:32:02;15.70;99.90
14378;DHT22;7272;53.668;9.578;2023-04-15T13:35:05;16.00;99.90
14378;DHT22;7272;53.668;9.578;2023-04-15T13:38:07;15.90;99.90
14378;DHT22;7272;53.668;9.578;2023-04-15T13:41:10;15.70;99.90
14378;DHT22;7272;53.668;9.578;2023-04-15T13:44:14;15.60;99.90
14378;DHT22;7272;53.668;9.578;2023-04-15T13:47:18;15.70;99.90
14378;DHT22;7272;53.668;9.578;2023-04-15T13:50:21;15.60;99.90
14378;DHT22;7272;53.668;9.578;2023-04-15T13:53:23;15.60;99.90
14378;DHT22;7272;53.668;9.578;2023-04-15T13:56:25;15.80;99.90
14378;DHT22;7272;53.668;9.578;2023-04-15T13:59:29;16.10;99.90
14378;DHT22;7272;53.668;9.578;2023-04-15T14:02:32;15.90;99.90
14378;DHT22;7272;53.668;9.578;2023-04-15T14:05:35;15.70;99.90
14378;DHT22;7272;53.668;9.578;2023-04-15T14:08:38;15.60;99.90
14378;DHT22;7272;53.668;9.578;2023-04-15T14:11:40;15.60;99.90
14378;DHT22;7272;53.668;9.578;2023-04-15T14:14:44;15.70;99.90
14378;DHT22;7272;53.668;9.578;2023-04-15T14:17:47;16.00;99.90
14378;DHT22;7272;53.668;9.578;2023-04-15T14:20:49;16.10;99.90
14378;DHT22;7272;53.668;9.578;2023-04-15T14:23:52;15.80;99.90
14378;DHT22;7272;53.668;9.578;2023-04-15T14:26:54;15.60;99.90
14378;DHT22;7272;53.668;9.578;2023-04-15T14:29:58;15.50;99.90
14378;DHT22;7272;53.668;9.578;2023-04-15T14:33:00;15.40;99.90
14378;DHT22;7272;53.668;9.578;2023-04-15T14:36:03;15.20;99.90
14378;DHT22;7272;53.668;9.578;2023-04-15T14:39:06;15.20;99.90
14378;DHT22;7272;53.668;9.578;2023-04-15T14:42:09;15.00;99.90
14378;DHT22;7272;53.668;9.578;2023-04-15T14:45:12;15.00;99.90
14378;DHT22;7272;53.668;9.578;2023-04-15T14:48:15;15.00;99.90
14378;DHT22;7272;53.668;9.578;2023-04-15T14:51:17;15.20;99.90
14378;DHT22;7272;53.668;9.578;2023-04-15T14:54:19;15.10;99.90
14378;DHT22;7272;53.668;9.578;2023-04-15T14:57:22;15.00;99.90
14378;DHT22;7272;53.668;9.578;2023-04-15T15:00:26;14.90;99.90
14378;DHT22;7272;53.668;9.578;2023-04-15T15:03:28;14.80;99.90
14378;DHT22;7272;53.668;9.578;2023-04-15T15:06:30;14.80;99.90
14378;DHT22;7272;53.668;9.578;2023-04-15T15:09:33;14.70;99.90
14378;DHT22;7272;53.668;9.578;2023-04-15T15:12:35;14.60;99.90
14378;DHT22;7272;53.668;9.578;2023-04-15T15:15:41;14.50;99.90
14378;DHT22;7272;53.668;9.578;2023-04-15T15:18:44;14.60;99.90
14378;DHT22;7272;53.668;9.578;2023-04-15T15:21:46;14.60;99.90
14378;DHT22;7272;53.668;9.578;2023-04-15T15:24:49;14.60;99.90
14378;DHT22;7272;53.668;9.578;2023-04-15T15:27:51;14.60;99.90
14378;DHT22;7272;53.668;9.578;2023-04-15T15:30:55;14.50;99.90
14378;DHT22;7272;53.668;9.578;2023-04-15T15:33:57;14.40;99.90
14378;DHT22;7272;53.668;9.578;2023-04-15T15:36:59;14.30;99.90
14378;DHT22;7272;53.668;9.578;2023-04-15T15:40:03;14.30;99.90
14378;DHT22;7272;53.668;9.578;2023-04-15T15:43:06;14.30;99.90
14378;DHT22;7272;53.668;9.578;2023-04-15T15:46:09;14.50;99.90
14378;DHT22;7272;53.668;9.578;2023-04-15T15:49:12;14.50;99.90
14378;DHT22;7272;53.668;9.578;2023-04-15T15:52:14;14.50;99.90
14378;DHT22;7272;53.668;9.578;2023-04-15T15:55:17;14.50;99.90
14378;DHT22;7272;53.668;9.578;2023-04-15T15:58:19;14.40;99.90
14378;DHT22;7272;53.668;9.578;2023-04-15T16:01:23;14.40;99.90
14378;DHT22;7272;53.668;9.578;2023-04-15T16:04:25;14.40;99.90
14378;DHT22;7272;53.668;9.578;2023-04-15T16:07:28;14.30;99.90
14378;DHT22;7272;53.668;9.578;2023-04-15T16:10:31;14.10;99.90
14378;DHT22;7272;53.668;9.578;2023-04-15T16:13:33;14.10;99.90
14378;DHT22;7272;53.668;9.578;2023-04-15T16:16:37;14.00;99.90
14378;DHT22;7272;53.668;9.578;2023-04-15T16:19:41;14.00;99.90
14378;DHT22;7272;53.668;9.578;2023-04-15T16:22:43;14.00;99.90
14378;DHT22;7272;53.668;9.578;2023-04-15T16:25:45;14.00;99.90
14378;DHT22;7272;53.668;9.578;2023-04-15T16:28:48;14.10;99.90
14378;DHT22;7272;53.668;9.578;2023-04-15T16:31:53;14.00;99.90
14378;DHT22;7272;53.668;9.578;2023-04-15T16:34:56;13.80;99.90
14378;DHT22;7272;53.668;9.578;2023-04-15T16:37:58;13.70;99.90
14378;DHT22;7272;53.668;9.578;2023-04-15T16:41:00;13.40;99.90
14378;DHT22;7272;53.668;9.578;2023-04-15T16:44:02;13.40;99.90
14378;DHT22;7272;53.668;9.578;2023-04-15T16:47:06;13.40;99.90
14378;DHT22;7272;53.668;9.578;2023-04-15T16:50:10;13.40;99.90
14378;DHT22;7272;53.668;9.578;2023-04-15T16:53:13;13.30;99.90
14378;DHT22;7272;53.668;9.578;2023-04-15T16:56:15;13.30;99.90
14378;DHT22;7272;53.668;9.578;2023-04-15T16:59:17;13.30;99.90
14378;DHT22;7272;53.668;9.578;2023-04-15T17:02:20;13.30;99.90
14378;DHT22;7272;53.668;9.578;2023-04-15T17:05:22;13.30;99.90
14378;DHT22;7272;53.668;9.578;2023-04-15T17:08:24;13.20;99.90
14378;DHT22;7272;53.668;9.578;2023-04-15T17:11:26;13.20;99.90
14378;DHT22;7272;53.668;9.578;2023-04-15T17:14:28;13.20;99.90
14378;DHT22;7272;53.668;9.578;2023-04-15T17:17:32;13.20;99.90
14378;DHT22;7272;53.668;9.578;2023-04-15T17:20:34;13.20;99.90
14378;DHT22;7272;53.668;9.578;2023-04-15T17:23:36;13.20;99.90
14378;DHT22;7272;53.668;9.578;2023-04-15T17:26:38;13.10;99.90
14378;DHT22;7272;53.668;9.578;2023-04-15T17:29:40;13.10;99.90
14378;DHT22;7272;53.668;9.578;2023-04-15T17:33:04;13.10;99.90
14378;DHT22;7272;53.668;9.578;2023-04-15T17:36:27;13.00;99.90
14378;DHT22;7272;53.668;9.578;2023-04-15T17:39:49;13.00;99.90
14378;DHT22;7272;53.668;9.578;2023-04-15T17:43:11;12.90;99.90
14378;DHT22;7272;53.668;9.578;2023-04-15T17:46:33;12.90;99.90
14378;DHT22;7272;53.668;9.578;2023-04-15T17:49:56;12.80;99.90
14378;DHT22;7272;53.668;9.578;2023-04-15T17:53:18;12.70;99.90
14378;DHT22;7272;53.668;9.578;2023-04-15T17:56:40;12.60;99.90
14378;DHT22;7272;53.668;9.578;2023-04-15T18:00:02;12.60;99.90
14378;DHT22;7272;53.668;9.578;2023-04-15T18:03:33;12.60;99.90
14378;DHT22;7272;53.668;9.578;2023-04-15T18:06:56;12.70;99.90
14378;DHT22;7272;53.668;9.578;2023-04-15T18:10:18;12.70;99.90
14378;DHT22;7272;53.668;9.578;2023-04-15T18:13:41;12.70;99.90
14378;DHT22;7272;53.668;9.578;2023-04-15T18:17:03;12.60;99.90
14378;DHT22;7272;53.668;9.578;2023-04-15T18:20:25;12.50;99.90
14378;DHT22;7272;53.668;9.578;2023-04-15T18:23:28;12.50;99.90
14378;DHT22;7272;53.668;9.578;2023-04-15T18:26:30;12.40;99.90
14378;DHT22;7272;53.668;9.578;2023-04-15T18:29:33;12.40;99.90
14378;DHT22;7272;53.668;9.578;2023-04-15T18:32:35;12.40;99.90
14378;DHT22;7272;53.668;9.578;2023-04-15T18:35:37;12.30;99.90
14378;DHT22;7272;53.668;9.578;2023-04-15T18:38:45;12.30;99.90
14378;DHT22;7272;53.668;9.578;2023-04-15T18:41:47;12.30;99.90
14378;DHT22;7272;53.668;9.578;2023-04-15T18:44:49;12.20;99.90
14378;DHT22;7272;53.668;9.578;2023-04-15T18:47:51;12.20;99.90
14378;DHT22;7272;53.668;9.578;2023-04-15T18:50:53;12.10;99.90
14378;DHT22;7272;53.668;9.578;2023-04-15T18:53:59;12.10;99.90
14378;DHT22;7272;53.668;9.578;2023-04-15T18:57:01;12.00;99.90
14378;DHT22;7272;53.668;9.578;2023-04-15T19:00:04;12.00;99.90
14378;DHT22;7272;53.668;9.578;2023-04-15T19:03:06;11.90;99.90
14378;DHT22;7272;53.668;9.578;2023-04-15T19:06:08;11.90;99.90
14378;DHT22;7272;53.668;9.578;2023-04-15T19:09:11;11.90;99.90
14378;DHT22;7272;53.668;9.578;2023-04-15T19:12:13;11.80;99.90
14378;DHT22;7272;53.668;9.578;2023-04-15T19:15:15;11.80;99.90
14378;DHT22;7272;53.668;9.578;2023-04-15T19:18:17;11.80;99.90
14378;DHT22;7272;53.668;9.578;2023-04-15T19:21:19;11.80;99.90
14378;DHT22;7272;53.668;9.578;2023-04-15T19:24:22;11.80;99.90
14378;DHT22;7272;53.668;9.578;2023-04-15T19:27:24;11.80;99.90
14378;DHT22;7272;53.668;9.578;2023-04-15T19:30:27;11.80;99.90
14378;DHT22;7272;53.668;9.578;2023-04-15T19:33:32;11.80;99.90
14378;DHT22;7272;53.668;9.578;2023-04-15T19:36:34;11.70;99.90
14378;DHT22;7272;53.668;9.578;2023-04-15T19:39:37;11.70;99.90
14378;DHT22;7272;53.668;9.578;2023-04-15T19:42:39;11.70;99.90
14378;DHT22;7272;53.668;9.578;2023-04-15T19:45:41;11.60;99.90
14378;DHT22;7272;53.668;9.578;2023-04-15T19:48:45;11.60;99.90
14378;DHT22;7272;53.668;9.578;2023-04-15T19:51:47;11.60;99.90